createdAt,value
2019-02-07T00:02:14.995Z,82.71
2019-02-07T00:04:45.142Z,82.60
2019-02-07T00:07:15.560Z,82.53
2019-02-07T00:09:45.665Z,82.53
2019-02-07T00:12:15.898Z,82.53
2019-02-07T00:14:46.024Z,82.51
2019-02-07T00:17:16.150Z,82.66
2019-02-07T00:19:46.282Z,82.73
2019-02-07T00:22:16.441Z,82.64
2019-02-07T00:24:46.579Z,82.62
2019-02-07T00:27:17.675Z,82.70
2019-02-07T00:29:47.779Z,82.57
2019-02-07T00:32:17.911Z,82.58
2019-02-07T00:34:49.208Z,82.51
2019-02-07T00:37:19.346Z,82.37
2019-02-07T00:39:50.433Z,82.48
2019-02-07T00:42:20.629Z,82.58
2019-02-07T00:44:52.565Z,82.57
2019-02-07T00:47:22.718Z,82.50
2019-02-07T00:49:52.808Z,82.60
2019-02-07T00:52:22.955Z,82.67
2019-02-07T00:54:53.083Z,82.69
2019-02-07T00:57:23.225Z,82.62
2019-02-07T00:59:53.332Z,82.70
2019-02-07T01:02:23.446Z,82.86
2019-02-07T01:04:53.559Z,82.79
2019-02-07T01:07:23.675Z,82.99
2019-02-07T01:09:53.856Z,82.96
2019-02-07T01:12:24.131Z,83.05
2019-02-07T01:15:01.586Z,82.95
2019-02-07T01:17:26.642Z,82.94
2019-02-07T01:19:56.760Z,82.74
2019-02-07T01:22:26.911Z,82.86
2019-02-07T01:24:57.342Z,82.79
2019-02-07T01:27:27.542Z,82.86
2019-02-07T01:29:57.678Z,82.96
2019-02-07T01:32:27.815Z,82.94
2019-02-07T01:34:57.973Z,82.89
2019-02-07T01:37:28.058Z,82.78
2019-02-07T01:39:58.179Z,82.79
2019-02-07T01:42:28.567Z,82.63
2019-02-07T01:44:58.674Z,82.63
2019-02-07T01:47:28.789Z,82.55
2019-02-07T01:49:58.886Z,82.56
2019-02-07T01:52:29.003Z,82.14
2019-02-07T01:54:59.114Z,82.57
2019-02-07T01:57:29.621Z,82.60
2019-02-07T01:59:59.731Z,82.48
2019-02-07T02:02:29.914Z,82.54
2019-02-07T02:05:00.035Z,82.51
2019-02-07T02:07:30.155Z,82.56
2019-02-07T02:10:00.312Z,82.49
2019-02-07T02:12:31.457Z,82.47
2019-02-07T02:15:01.577Z,82.55
2019-02-07T02:17:32.774Z,82.55
2019-02-07T02:20:02.951Z,82.53
2019-02-07T02:22:33.074Z,82.55
2019-02-07T02:25:04.088Z,82.56
2019-02-07T02:27:34.200Z,82.45
2019-02-07T02:30:06.328Z,82.38
2019-02-07T02:32:36.458Z,82.23
2019-02-07T02:35:06.895Z,82.35
2019-02-07T02:37:37.388Z,82.11
2019-02-07T02:40:07.780Z,82.36
2019-02-07T02:42:37.889Z,82.45
2019-02-07T02:45:10.138Z,82.38
2019-02-07T02:47:40.255Z,82.45
2019-02-07T02:50:12.756Z,82.46
2019-02-07T02:52:43.149Z,82.42
2019-02-07T02:55:16.858Z,82.34
2019-02-07T02:57:47.016Z,82.36
2019-02-07T03:00:20.527Z,82.39
2019-02-07T03:03:09.599Z,82.46
2019-02-07T03:05:48.306Z,82.51
2019-02-07T03:08:46.228Z,82.51
2019-02-07T03:11:47.646Z,82.54
2019-02-07T03:14:35.834Z,82.52
2019-02-07T03:17:16.436Z,82.53
2019-02-07T03:20:17.710Z,82.60
2019-02-07T03:23:05.688Z,82.61
2019-02-07T03:25:53.529Z,82.61
2019-02-07T03:28:36.265Z,82.54
2019-02-07T03:31:24.553Z,82.61
2019-02-07T03:34:14.004Z,82.61
2019-02-07T03:37:05.953Z,82.50
2019-02-07T03:39:57.826Z,82.60
2019-02-07T03:43:02.106Z,82.53
2019-02-07T03:45:40.896Z,82.40
2019-02-07T03:48:26.801Z,82.06
2019-02-07T03:51:14.610Z,82.23
2019-02-07T03:54:16.315Z,82.01
2019-02-07T03:57:04.366Z,82.24
2019-02-07T04:00:06.057Z,82.36
2019-02-07T04:02:58.439Z,82.42
2019-02-07T04:05:47.528Z,82.38
2019-02-07T04:08:51.979Z,82.32
2019-02-07T04:11:56.025Z,82.39
2019-02-07T04:14:45.102Z,82.38
2019-02-07T04:17:33.197Z,82.48
2019-02-07T04:20:20.952Z,82.43
2019-02-07T04:23:12.850Z,82.37
2019-02-07T04:25:59.301Z,82.35
2019-02-07T04:28:36.574Z,82.15
2019-02-07T04:31:20.863Z,82.34
2019-02-07T04:34:16.717Z,82.41
2019-02-07T04:37:14.725Z,82.35
2019-02-07T04:40:02.682Z,82.25
2019-02-07T04:42:51.884Z,82.36
2019-02-07T04:45:56.391Z,82.38
2019-02-07T04:49:03.625Z,82.44
2019-02-07T04:51:41.844Z,82.49
2019-02-07T04:54:39.282Z,82.53
2019-02-07T04:57:40.790Z,82.54
2019-02-07T05:00:32.684Z,82.61
2019-02-07T05:03:34.250Z,82.49
2019-02-07T05:06:12.043Z,82.43
2019-02-07T05:08:58.977Z,82.23
2019-02-07T05:11:43.002Z,82.44
2019-02-07T05:14:29.685Z,82.18
2019-02-07T05:17:17.726Z,82.42
2019-02-07T05:20:04.866Z,82.57
2019-02-07T05:22:54.544Z,82.65
2019-02-07T05:25:42.643Z,82.52
2019-02-07T05:28:37.513Z,82.51
2019-02-07T05:31:20.926Z,82.56
2019-02-07T05:34:28.269Z,82.45
2019-02-07T05:37:16.009Z,82.36
2019-02-07T05:40:14.090Z,82.10
2019-02-07T05:42:55.987Z,82.09
2019-02-07T05:45:47.848Z,82.07
2019-02-07T05:48:35.914Z,82.30
2019-02-07T05:51:23.088Z,82.12
2019-02-07T05:54:13.288Z,82.36
2019-02-07T05:57:05.238Z,82.24
2019-02-07T06:00:09.805Z,82.26
2019-02-07T06:02:48.876Z,82.24
2019-02-07T06:05:37.937Z,82.34
2019-02-07T06:08:42.181Z,82.25
2019-02-07T06:11:34.453Z,82.16
2019-02-07T06:14:22.620Z,82.05
2019-02-07T06:17:11.672Z,82.18
2019-02-07T06:20:00.889Z,82.23
2019-02-07T06:22:59.124Z,82.08
2019-02-07T06:25:54.285Z,82.09
2019-02-07T06:28:42.074Z,82.06
2019-02-07T06:31:21.309Z,82.12
2019-02-07T06:34:09.364Z,82.01
2019-02-07T06:36:57.056Z,81.88
2019-02-07T06:39:54.992Z,82.03
2019-02-07T06:42:59.489Z,82.04
2019-02-07T06:45:57.758Z,82.09
2019-02-07T06:48:40.273Z,82.19
2019-02-07T06:51:28.249Z,82.09
2019-02-07T06:54:30.297Z,82.31
2019-02-07T06:57:18.304Z,82.31
2019-02-07T06:59:55.284Z,82.29
2019-02-07T07:02:42.519Z,82.33
2019-02-07T07:05:44.148Z,82.38
2019-02-07T07:08:28.827Z,82.18
2019-02-07T07:11:08.475Z,82.11
2019-02-07T07:14:09.723Z,82.27
2019-02-07T07:16:53.548Z,82.31
2019-02-07T07:19:45.373Z,82.21
2019-02-07T07:22:34.456Z,82.05
2019-02-07T07:25:13.698Z,82.06
2019-02-07T07:28:08.563Z,81.95
2019-02-07T07:30:55.197Z,81.46
2019-02-07T07:33:50.080Z,81.59
2019-02-07T07:36:37.857Z,81.89
2019-02-07T07:39:27.525Z,81.79
2019-02-07T07:42:19.491Z,81.81
2019-02-07T07:45:24.124Z,81.76
2019-02-07T07:48:11.901Z,81.78
2019-02-07T07:51:16.141Z,81.78
2019-02-07T07:54:05.398Z,81.75
2019-02-07T07:56:44.317Z,81.89
2019-02-07T07:59:29.285Z,81.91
2019-02-07T08:02:09.131Z,81.87
2019-02-07T08:05:16.648Z,81.94
2019-02-07T08:08:17.858Z,81.85
2019-02-07T08:10:54.654Z,81.96
2019-02-07T08:13:42.481Z,81.95
2019-02-07T08:16:30.845Z,81.98
2019-02-07T08:19:19.929Z,81.92
2019-02-07T08:22:09.015Z,81.91
2019-02-07T08:25:01.133Z,81.97
2019-02-07T08:28:08.392Z,81.95
2019-02-07T08:30:50.458Z,81.45
2019-02-07T08:33:39.952Z,81.84
2019-02-07T08:36:32.031Z,81.21
2019-02-07T08:39:21.095Z,80.81
2019-02-07T08:42:09.058Z,80.90
2019-02-07T08:44:57.079Z,80.85
2019-02-07T08:47:45.614Z,80.69
2019-02-07T08:50:33.412Z,81.11
2019-02-07T08:53:21.200Z,80.84
2019-02-07T08:56:09.358Z,81.39
2019-02-07T08:58:58.705Z,80.99
2019-02-07T09:02:00.177Z,81.36
2019-02-07T09:04:41.592Z,81.24
2019-02-07T09:07:20.320Z,81.61
2019-02-07T09:10:09.386Z,81.52
2019-02-07T09:12:57.078Z,81.41
2019-02-07T09:15:40.328Z,81.53
2019-02-07T09:18:32.731Z,81.55
2019-02-07T09:21:21.833Z,81.48
2019-02-07T09:24:01.894Z,81.28
2019-02-07T09:26:49.688Z,81.34
2019-02-07T09:29:41.663Z,81.38
2019-02-07T09:32:36.652Z,81.38
2019-02-07T09:35:26.865Z,80.34
2019-02-07T09:38:34.419Z,80.39
2019-02-07T09:41:31.200Z,80.92
2019-02-07T09:44:20.255Z,80.99
2019-02-07T09:47:08.713Z,80.97
2019-02-07T09:50:03.830Z,80.92
2019-02-07T09:52:52.072Z,80.53
2019-02-07T09:55:43.997Z,80.86
2019-02-07T09:58:27.014Z,80.79
2019-02-07T10:01:17.093Z,80.94
2019-02-07T10:04:15.322Z,80.68
2019-02-07T10:06:59.930Z,81.04
2019-02-07T10:09:47.764Z,81.06
2019-02-07T10:12:35.492Z,80.80
2019-02-07T10:15:23.188Z,80.67
2019-02-07T10:18:11.300Z,80.11
2019-02-07T10:21:03.532Z,80.56
2019-02-07T10:24:00.175Z,80.77
2019-02-07T10:26:51.159Z,80.34
2019-02-07T10:29:33.661Z,80.55
2019-02-07T10:32:20.583Z,80.30
2019-02-07T10:35:03.706Z,80.19
2019-02-07T10:37:51.448Z,80.33
2019-02-07T10:40:49.349Z,80.35
2019-02-07T10:43:27.928Z,79.65
2019-02-07T10:46:26.124Z,79.36
2019-02-07T10:49:14.098Z,79.29
2019-02-07T10:52:03.165Z,79.26
2019-02-07T10:54:49.947Z,79.21
2019-02-07T10:57:37.690Z,79.16
2019-02-07T11:00:33.389Z,78.96
2019-02-07T11:03:30.108Z,79.18
2019-02-07T11:06:20.749Z,79.62
2019-02-07T11:09:12.963Z,79.32
2019-02-07T11:12:00.896Z,78.99
2019-02-07T11:14:48.878Z,78.48
2019-02-07T11:17:36.513Z,79.29
2019-02-07T11:20:26.917Z,79.26
2019-02-07T11:23:09.460Z,79.41
2019-02-07T11:25:58.527Z,79.49
2019-02-07T11:28:46.357Z,79.08
2019-02-07T11:31:38.899Z,79.27
2019-02-07T11:34:23.967Z,79.47
2019-02-07T11:37:16.094Z,79.27
2019-02-07T11:40:10.896Z,79.10
2019-02-07T11:43:02.736Z,78.53
2019-02-07T11:45:51.819Z,79.12
2019-02-07T11:48:35.220Z,79.20
2019-02-07T11:51:24.626Z,79.02
2019-02-07T11:54:16.092Z,79.13
2019-02-07T11:57:06.737Z,79.00
2019-02-07T12:00:08.188Z,79.13
2019-02-07T12:02:56.009Z,78.93
2019-02-07T12:05:50.817Z,78.85
2019-02-07T12:08:52.136Z,79.12
2019-02-07T12:11:48.618Z,79.03
2019-02-07T12:14:30.492Z,78.94
2019-02-07T12:17:28.850Z,79.06
2019-02-07T12:20:36.521Z,78.84
2019-02-07T12:23:15.897Z,78.93
2019-02-07T12:26:14.115Z,78.88
2019-02-07T12:29:12.215Z,78.83
2019-02-07T12:32:07.545Z,78.85
2019-02-07T12:35:14.796Z,78.58
2019-02-07T12:38:03.810Z,79.11
2019-02-07T12:40:52.027Z,78.81
2019-02-07T12:43:38.297Z,78.77
2019-02-07T12:46:40.206Z,78.92
2019-02-07T12:49:29.509Z,79.05
2019-02-07T12:52:27.444Z,78.49
2019-02-07T12:55:12.323Z,78.64
2019-02-07T12:58:19.803Z,79.05
2019-02-07T13:01:21.057Z,78.25
2019-02-07T13:04:10.704Z,77.74
2019-02-07T13:07:01.348Z,77.25
2019-02-07T13:09:50.412Z,77.98
2019-02-07T13:12:26.918Z,78.34
2019-02-07T13:15:12.339Z,77.46
2019-02-07T13:18:11.860Z,76.95
2019-02-07T13:21:02.283Z,77.49
2019-02-07T13:23:50.501Z,77.63
2019-02-07T13:26:26.797Z,77.37
2019-02-07T13:29:12.338Z,78.39
2019-02-07T13:32:00.586Z,78.32
2019-02-07T13:34:48.701Z,77.47
2019-02-07T13:37:27.394Z,78.03
2019-02-07T13:40:14.253Z,77.22
2019-02-07T13:43:09.648Z,77.14
2019-02-07T13:45:59.026Z,77.71
2019-02-07T13:48:51.164Z,76.78
2019-02-07T13:51:46.355Z,77.44
2019-02-07T13:54:27.971Z,76.86
2019-02-07T13:57:23.208Z,77.68
2019-02-07T14:00:18.111Z,76.52
2019-02-07T14:03:07.184Z,77.86
2019-02-07T14:06:08.671Z,76.97
2019-02-07T14:08:51.393Z,77.41
2019-02-07T14:11:43.533Z,77.24
2019-02-07T14:14:28.849Z,77.48
2019-02-07T14:17:10.525Z,77.16
2019-02-07T14:20:03.263Z,77.22
2019-02-07T14:22:41.396Z,77.22
2019-02-07T14:25:25.747Z,77.31
2019-02-07T14:28:20.617Z,77.37
2019-02-07T14:31:08.630Z,77.18
2019-02-07T14:33:59.002Z,77.44
2019-02-07T14:36:57.206Z,76.94
2019-02-07T14:39:39.770Z,77.28
2019-02-07T14:42:35.194Z,77.23
2019-02-07T14:45:25.098Z,77.03
2019-02-07T14:47:55.362Z,76.96
2019-02-07T14:50:25.557Z,77.36
2019-02-07T14:52:55.753Z,76.95
2019-02-07T14:55:26.158Z,77.16
2019-02-07T14:57:56.519Z,76.90
2019-02-07T15:00:26.942Z,77.23
2019-02-07T15:02:57.043Z,77.37
2019-02-07T15:05:27.166Z,77.54
2019-02-07T15:07:57.427Z,77.68
2019-02-07T15:10:27.798Z,77.50
2019-02-07T15:13:01.178Z,77.95
2019-02-07T15:15:51.395Z,77.84
2019-02-07T15:18:21.932Z,77.81
2019-02-07T15:20:52.115Z,77.92
2019-02-07T15:23:22.236Z,78.67
2019-02-07T15:25:52.347Z,78.49
2019-02-07T15:28:22.477Z,78.58
2019-02-07T15:30:52.575Z,79.17
2019-02-07T15:33:23.111Z,78.81
2019-02-07T15:35:53.256Z,79.02
2019-02-07T15:38:23.351Z,79.11
2019-02-07T15:40:53.642Z,78.57
2019-02-07T15:43:23.867Z,79.03
2019-02-07T15:45:54.432Z,79.72
2019-02-07T15:48:24.547Z,79.51
2019-02-07T15:50:54.661Z,79.37
2019-02-07T15:53:24.772Z,79.66
2019-02-07T15:55:55.067Z,79.74
2019-02-07T15:58:50.118Z,79.81
2019-02-07T16:01:31.051Z,80.24
2019-02-07T16:04:25.942Z,80.59
2019-02-07T16:06:56.054Z,80.52
2019-02-07T16:09:26.217Z,80.46
2019-02-07T16:11:56.307Z,80.89
2019-02-07T16:14:26.608Z,81.16
2019-02-07T16:16:56.705Z,81.43
2019-02-07T16:19:26.824Z,81.81
2019-02-07T16:21:56.943Z,81.88
2019-02-07T16:24:27.027Z,81.92
2019-02-07T16:26:57.764Z,82.03
2019-02-07T16:29:27.956Z,82.32
2019-02-07T16:31:58.458Z,82.42
2019-02-07T16:34:28.654Z,82.44
2019-02-07T16:36:58.749Z,82.22
2019-02-07T16:39:28.872Z,82.42
2019-02-07T16:42:05.766Z,82.68
2019-02-07T16:44:31.531Z,82.99
2019-02-07T16:47:01.638Z,83.15
2019-02-07T16:49:32.804Z,83.09
2019-02-07T16:52:02.927Z,83.22
2019-02-07T16:54:33.025Z,83.28
2019-02-07T16:57:03.135Z,83.40
2019-02-07T16:59:33.763Z,83.49
2019-02-07T17:02:05.455Z,83.51
2019-02-07T17:04:35.558Z,83.50
2019-02-07T17:07:05.767Z,83.63
2019-02-07T17:09:44.184Z,83.86
2019-02-07T17:12:14.678Z,84.13
2019-02-07T17:14:44.873Z,84.22
2019-02-07T17:17:14.967Z,84.24
2019-02-07T17:19:45.874Z,84.08
2019-02-07T17:22:16.141Z,83.98
2019-02-07T17:24:46.526Z,84.45
2019-02-07T17:27:16.651Z,84.30
2019-02-07T17:29:46.740Z,84.49
2019-02-07T17:32:16.859Z,84.46
2019-02-07T17:34:46.975Z,84.48
2019-02-07T17:37:17.086Z,84.08
2019-02-07T17:39:47.468Z,84.24
2019-02-07T17:42:17.607Z,84.25
2019-02-07T17:44:47.800Z,84.57
2019-02-07T17:47:17.977Z,84.46
2019-02-07T17:49:48.090Z,84.44
2019-02-07T17:52:18.202Z,84.56
2019-02-07T17:54:48.303Z,84.72
2019-02-07T17:57:18.451Z,84.67
2019-02-07T17:59:48.656Z,84.65
2019-02-07T18:02:18.754Z,84.55
2019-02-07T18:04:48.867Z,84.49
2019-02-07T18:07:18.974Z,84.42
2019-02-07T18:09:50.149Z,84.23
2019-02-07T18:12:20.247Z,84.46
2019-02-07T18:14:50.330Z,84.50
2019-02-07T18:17:20.549Z,84.20
2019-02-07T18:19:50.669Z,84.05
2019-02-07T18:22:21.163Z,83.93
2019-02-07T18:24:51.252Z,83.64
2019-02-07T18:27:21.362Z,83.54
2019-02-07T18:29:52.222Z,83.76
2019-02-07T18:32:22.401Z,83.67
2019-02-07T18:34:52.505Z,83.91
2019-02-07T18:37:22.600Z,84.06
2019-02-07T18:39:52.716Z,84.12
2019-02-07T18:42:22.837Z,83.83
2019-02-07T18:44:52.957Z,83.83
2019-02-07T18:47:23.074Z,83.99
2019-02-07T18:49:53.164Z,83.88
2019-02-07T18:52:23.302Z,83.43
2019-02-07T18:54:53.427Z,83.67
2019-02-07T18:57:23.544Z,83.54
2019-02-07T18:59:54.353Z,83.27
2019-02-07T19:02:24.469Z,83.35
2019-02-07T19:04:54.906Z,82.86
2019-02-07T19:07:25.025Z,82.92
2019-02-07T19:09:55.313Z,82.69
2019-02-07T19:12:25.444Z,82.41
2019-02-07T19:14:55.583Z,82.55
2019-02-07T19:17:25.699Z,82.47
2019-02-07T19:19:57.276Z,82.09
2019-02-07T19:22:27.352Z,82.43
2019-02-07T19:24:57.872Z,82.43
2019-02-07T19:27:27.969Z,82.53
2019-02-07T19:29:59.684Z,82.36
2019-02-07T19:32:29.807Z,82.31
2019-02-07T19:34:59.929Z,82.47
2019-02-07T19:37:30.088Z,82.14
2019-02-07T19:40:00.264Z,82.25
2019-02-07T19:42:30.321Z,82.52
2019-02-07T19:45:00.553Z,82.45
2019-02-07T19:47:30.935Z,82.53
2019-02-07T19:50:01.133Z,82.36
2019-02-07T19:52:31.227Z,82.47
2019-02-07T19:55:01.336Z,82.20
2019-02-07T19:57:31.442Z,82.31
2019-02-07T20:00:01.572Z,82.19
2019-02-07T20:02:32.163Z,82.17
2019-02-07T20:05:02.324Z,82.20
2019-02-07T20:07:32.423Z,82.24
2019-02-07T20:10:02.675Z,82.16
2019-02-07T20:12:32.844Z,81.87
2019-02-07T20:15:03.255Z,81.88
2019-02-07T20:17:34.247Z,81.93
2019-02-07T20:20:05.187Z,81.66
2019-02-07T20:22:35.354Z,82.00
2019-02-07T20:25:06.241Z,81.93
2019-02-07T20:27:36.347Z,81.73
2019-02-07T20:30:11.258Z,81.69
2019-02-07T20:32:41.652Z,81.70
2019-02-07T20:35:12.279Z,81.74
2019-02-07T20:37:42.447Z,81.80
2019-02-07T20:40:13.864Z,81.75
2019-02-07T20:42:44.006Z,81.68
2019-02-07T20:45:14.344Z,81.98
2019-02-07T20:47:44.883Z,81.69
2019-02-07T20:50:17.568Z,81.76
2019-02-07T20:52:48.451Z,81.88
2019-02-07T20:55:19.167Z,81.89
2019-02-07T20:57:49.785Z,81.76
2019-02-07T21:00:23.126Z,81.84
2019-02-07T21:02:53.592Z,81.98
2019-02-07T21:05:23.709Z,81.75
2019-02-07T21:07:53.953Z,81.66
2019-02-07T21:10:24.840Z,81.59
2019-02-07T21:12:55.099Z,81.85
2019-02-07T21:15:25.661Z,81.86
2019-02-07T21:17:55.805Z,81.93
2019-02-07T21:20:27.561Z,82.02
2019-02-07T21:22:59.082Z,81.74
2019-02-07T21:25:38.079Z,81.68
2019-02-07T21:28:09.203Z,81.94
2019-02-07T21:30:39.553Z,81.64
2019-02-07T21:33:09.699Z,81.93
2019-02-07T21:35:39.808Z,82.20
2019-02-07T21:38:10.042Z,81.81
2019-02-07T21:40:40.195Z,81.62
2019-02-07T21:43:10.311Z,81.82
2019-02-07T21:45:40.399Z,81.65
2019-02-07T21:48:11.422Z,81.51
2019-02-07T21:50:41.516Z,81.50
2019-02-07T21:53:11.631Z,81.64
2019-02-07T21:55:41.759Z,81.87
2019-02-07T21:58:12.217Z,81.88
2019-02-07T22:00:45.079Z,82.04
2019-02-07T22:03:16.214Z,82.01
2019-02-07T22:05:46.465Z,81.85
2019-02-07T22:08:17.674Z,81.67
2019-02-07T22:10:47.852Z,81.92
2019-02-07T22:13:18.011Z,81.83
2019-02-07T22:15:48.084Z,81.65
2019-02-07T22:18:18.187Z,81.92
2019-02-07T22:20:48.287Z,81.89
2019-02-07T22:23:18.393Z,81.65
2019-02-07T22:25:48.517Z,81.77
2019-02-07T22:28:18.626Z,81.58
2019-02-07T22:30:48.834Z,81.75
2019-02-07T22:33:19.782Z,81.69
2019-02-07T22:35:49.955Z,81.69
2019-02-07T22:38:20.086Z,81.55
2019-02-07T22:40:50.373Z,81.36
2019-02-07T22:43:20.493Z,81.34
2019-02-07T22:45:50.617Z,81.17
2019-02-07T22:48:20.794Z,81.39
2019-02-07T22:50:51.598Z,81.29
2019-02-07T22:53:21.699Z,81.26
2019-02-07T22:55:52.069Z,81.11
2019-02-07T22:58:23.104Z,81.39
2019-02-07T23:01:18.517Z,81.24
2019-02-07T23:03:53.464Z,81.06
2019-02-07T23:06:23.589Z,80.92
2019-02-07T23:08:54.799Z,80.92
2019-02-07T23:11:25.057Z,80.90
2019-02-07T23:13:55.141Z,80.89
2019-02-07T23:16:25.248Z,80.97
2019-02-07T23:18:55.357Z,81.28
2019-02-07T23:21:26.541Z,81.34
2019-02-07T23:23:56.657Z,81.21
2019-02-07T23:26:26.748Z,81.04
2019-02-07T23:28:56.847Z,81.27
2019-02-07T23:31:27.220Z,81.18
2019-02-07T23:33:57.350Z,81.25
2019-02-07T23:36:27.456Z,81.23
2019-02-07T23:38:58.439Z,81.68
2019-02-07T23:41:28.543Z,81.28
2019-02-07T23:43:59.061Z,81.77
2019-02-07T23:46:29.360Z,81.41
2019-02-07T23:48:59.476Z,81.82
2019-02-07T23:51:29.594Z,81.63
2019-02-07T23:53:59.831Z,81.63
2019-02-07T23:56:29.929Z,81.81
2019-02-07T23:59:01.169Z,81.44
